Time;durP1;ratioP1;P1;durP2;ratioP2;P2;SDS_P1;SDS_P2;PMS_P1;PMS_P2;Temp;Humidity;BMP_temperature;BMP_pressure;BME280_temperature;BME280_humidity;BME280_pressure;Samples;Min_cycle;Max_cycle;Signal;HPM_P1;HPM_P2
2023/04/29 17:46:53;;;;;;;2.90;1.35;;;22.70;47.80;;;;;;5109266;27;20327;-65
2023/04/29 17:49:18;;;;;;;4.28;1.50;;;22.50;48.00;;;;;;5109442;28;20468;-65
2023/04/29 17:51:44;;;;;;;3.17;1.30;;;22.50;48.20;;;;;;5109067;28;20080;-63
2023/04/29 17:54:10;;;;;;;2.92;1.58;;;22.50;48.50;;;;;;5109444;28;20066;-64
2023/04/29 17:56:36;;;;;;;2.30;1.48;;;22.60;48.20;;;;;;5109820;28;20039;-64
2023/04/29 17:59:05;;;;;;;3.50;1.90;;;22.40;48.80;;;;;;5109230;28;20074;-64
2023/04/29 18:01:32;;;;;;;4.28;2.17;;;22.30;50.20;;;;;;5108763;28;20843;-64
2023/04/29 18:03:57;;;;;;;3.67;2.28;;;22.30;50.20;;;;;;5109252;28;20012;-62
2023/04/29 18:06:23;;;;;;;4.10;2.50;;;21.90;50.70;;;;;;5109556;28;20038;-62
2023/04/29 18:08:49;;;;;;;4.60;2.53;;;21.00;53.10;;;;;;5108230;28;20016;-64
2023/04/29 18:11:15;;;;;;;5.65;2.40;;;20.00;55.20;;;;;;5109714;28;20418;-64
2023/04/29 18:13:40;;;;;;;6.00;2.60;;;19.10;57.30;;;;;;5107861;28;20111;-63
2023/04/29 18:16:07;;;;;;;4.43;2.90;;;18.40;59.10;;;;;;5108221;28;20022;-63
2023/04/29 18:18:33;;;;;;;6.47;2.55;;;17.80;61.10;;;;;;5108919;28;20464;-63
2023/04/29 18:20:59;;;;;;;4.30;2.33;;;17.30;62.70;;;;;;5108627;28;20024;-64
2023/04/29 18:23:24;;;;;;;5.97;2.90;;;16.80;63.80;;;;;;5108770;28;20016;-62
2023/04/29 18:25:50;;;;;;;4.80;2.65;;;16.60;65.40;;;;;;5107606;28;20035;-62
2023/04/29 18:28:16;;;;;;;6.20;2.80;;;16.40;66.30;;;;;;5107628;28;20012;-62
2023/04/29 18:30:41;;;;;;;4.88;2.70;;;16.20;67.00;;;;;;5108181;28;20019;-62
2023/04/29 18:33:07;;;;;;;5.97;2.60;;;16.00;68.10;;;;;;5108471;28;20365;-65
2023/04/29 18:35:33;;;;;;;4.63;2.70;;;15.80;68.90;;;;;;5107885;28;20020;-65
2023/04/29 18:37:59;;;;;;;4.55;2.58;;;15.70;70.00;;;;;;5108097;28;20016;-64
2023/04/29 18:40:25;;;;;;;4.82;2.58;;;15.60;70.40;;;;;;5107396;28;20107;-62
2023/04/29 18:42:50;;;;;;;3.60;2.63;;;15.50;71.20;;;;;;5108408;28;20020;-62
2023/04/29 18:45:16;;;;;;;6.22;3.08;;;15.40;72.00;;;;;;5107897;28;20117;-64
2023/04/29 18:47:42;;;;;;;5.50;3.00;;;15.20;72.40;;;;;;5108404;28;20416;-63
2023/04/29 18:50:07;;;;;;;4.40;2.90;;;15.10;73.20;;;;;;5107082;28;20038;-65
2023/04/29 18:52:33;;;;;;;7.40;3.63;;;14.90;73.70;;;;;;5108117;28;20081;-63
2023/04/29 18:54:59;;;;;;;7.30;3.47;;;14.80;74.40;;;;;;5108104;28;20052;-62
2023/04/29 18:57:25;;;;;;;6.43;3.67;;;14.70;75.30;;;;;;5098448;28;20484;-65
2023/04/29 18:59:51;;;;;;;6.22;2.85;;;14.60;76.20;;;;;;5092843;28;20114;-62
2023/04/29 19:02:17;;;;;;;5.32;2.80;;;14.50;77.00;;;;;;5093864;28;20046;-65
2023/04/29 19:04:43;;;;;;;4.68;3.03;;;14.40;77.50;;;;;;5094148;28;20520;-64
2023/04/29 19:07:08;;;;;;;6.22;3.08;;;14.30;78.20;;;;;;5094322;28;20028;-62
2023/04/29 19:09:34;;;;;;;6.03;3.08;;;14.20;79.20;;;;;;5094689;28;20020;-66
2023/04/29 19:12:02;;;;;;;6.35;3.25;;;14.20;79.80;;;;;;5094477;28;20095;-69
2023/04/29 19:14:28;;;;;;;4.57;2.95;;;14.10;80.40;;;;;;5094640;28;20023;-68
2023/04/29 19:16:54;;;;;;;6.90;3.15;;;14.00;81.20;;;;;;5094437;28;20023;-62
2023/04/29 19:19:20;;;;;;;6.80;3.00;;;13.90;82.00;;;;;;5093729;28;20027;-65
2023/04/29 19:21:46;;;;;;;6.00;3.03;;;13.80;82.70;;;;;;5094045;28;20028;-64
2023/04/29 19:24:12;;;;;;;5.57;3.22;;;13.70;83.60;;;;;;5087986;28;20062;-66
2023/04/29 19:26:37;;;;;;;4.07;2.50;;;13.50;84.50;;;;;;5073134;28;20320;-64
2023/04/29 19:29:03;;;;;;;9.20;3.20;;;13.50;85.60;;;;;;5072637;28;20028;-62
2023/04/29 19:31:29;;;;;;;6.53;3.05;;;13.40;86.60;;;;;;5073843;28;20034;-65
2023/04/29 19:33:54;;;;;;;6.35;3.03;;;13.30;88.00;;;;;;5072414;28;20051;-64
2023/04/29 19:36:20;;;;;;;8.93;3.80;;;13.20;88.90;;;;;;5072947;28;20024;-65
2023/04/29 19:38:46;;;;;;;5.60;3.00;;;13.20;90.00;;;;;;5073546;28;20366;-62
2023/04/29 19:41:12;;;;;;;8.75;3.85;;;13.10;90.40;;;;;;5073212;28;20052;-62
2023/04/29 19:43:37;;;;;;;7.88;3.38;;;13.10;90.90;;;;;;5072584;28;20021;-62
2023/04/29 19:46:03;;;;;;;6.40;3.70;;;13.00;91.40;;;;;;5073258;28;20285;-64
2023/04/29 19:48:29;;;;;;;5.93;3.45;;;12.90;92.00;;;;;;5073040;28;20031;-62
2023/04/29 19:50:58;;;;;;;6.15;3.53;;;12.80;92.60;;;;;;5073061;28;20027;-64
2023/04/29 19:53:26;;;;;;;7.32;3.80;;;12.70;93.20;;;;;;5074154;28;20029;-65
2023/04/29 19:55:52;;;;;;;7.10;3.65;;;12.70;93.80;;;;;;5071574;28;20032;-66
2023/04/29 19:58:18;;;;;;;8.50;3.80;;;12.60;94.50;;;;;;5072921;28;20016;-64
2023/04/29 20:00:44;;;;;;;9.70;3.80;;;12.50;95.20;;;;;;5084465;28;20046;-63
2023/04/29 20:03:10;;;;;;;7.10;4.10;;;12.40;95.70;;;;;;5093200;28;20020;-63
2023/04/29 20:05:35;;;;;;;9.07;4.85;;;12.40;96.50;;;;;;5093822;28;20043;-65
2023/04/29 20:08:01;;;;;;;8.13;5.18;;;12.30;97.30;;;;;;5092000;28;20456;-64
2023/04/29 20:10:27;;;;;;;9.60;5.40;;;12.30;98.00;;;;;;5093098;28;20511;-64
2023/04/29 20:12:52;;;;;;;14.77;6.10;;;12.20;98.50;;;;;;5093399;28;20048;-64
2023/04/29 20:15:18;;;;;;;12.13;6.78;;;12.10;99.10;;;;;;5093074;28;20026;-65
2023/04/29 20:17:44;;;;;;;11.52;6.15;;;12.10;99.70;;;;;;5093404;28;20426;-63
2023/04/29 20:20:10;;;;;;;8.68;5.38;;;12.00;99.90;;;;;;5093535;28;20103;-61
2023/04/29 20:22:36;;;;;;;9.20;4.97;;;11.90;99.90;;;;;;5093011;28;20031;-63
2023/04/29 20:25:02;;;;;;;7.68;4.72;;;12.00;99.90;;;;;;5093300;28;20016;-63
2023/04/29 20:27:27;;;;;;;6.50;4.38;;;12.00;99.90;;;;;;5092102;28;20051;-63
2023/04/29 20:29:53;;;;;;;8.68;4.50;;;11.90;99.90;;;;;;5092227;28;20495;-63
2023/04/29 20:32:19;;;;;;;9.13;4.85;;;11.90;99.90;;;;;;5092176;28;20073;-63
2023/04/29 20:34:44;;;;;;;10.48;5.90;;;11.80;99.90;;;;;;5092962;28;20024;-64
2023/04/29 20:37:10;;;;;;;8.98;4.90;;;11.70;99.90;;;;;;5091475;28;20431;-65
2023/04/29 20:39:36;;;;;;;8.88;5.20;;;11.60;99.90;;;;;;5093418;28;20028;-66
2023/04/29 20:42:02;;;;;;;8.95;5.78;;;11.60;99.90;;;;;;5091863;28;20020;-66
2023/04/29 20:44:28;;;;;;;9.38;5.47;;;11.50;99.90;;;;;;5091089;28;20089;-65
2023/04/29 20:46:55;;;;;;;10.50;5.38;;;11.50;99.90;;;;;;5093156;28;20026;-64
2023/04/29 20:49:20;;;;;;;8.57;4.82;;;11.50;99.90;;;;;;5091843;28;20418;-64
2023/04/29 20:51:48;;;;;;;11.50;5.97;;;11.40;99.90;;;;;;5090559;28;20074;-63
2023/04/29 20:54:13;;;;;;;9.15;5.05;;;11.40;99.90;;;;;;5093095;28;20028;-64
2023/04/29 20:56:39;;;;;;;8.60;5.28;;;11.40;99.90;;;;;;5092596;28;20026;-64
2023/04/29 20:59:05;;;;;;;10.15;5.45;;;11.30;99.90;;;;;;5091638;28;20031;-63
